Latest Weather Observations for Esperance Harbour

IDW60801

Issued at 3:53 pm WST Sunday 15 September 2019 (issued every 10 minutes, with the page automatically refreshed every 10 minutes)

About weather observations | Map of weather stations | Latest weather observations for WA | Other Formats
Station Details ID: 109504 Name: ESPERANCE NTC AWS Lat: -33.87 Lon: 121.90 Height: 0.0 m
Data from the previous 72 hours. | See also: Recent months for locations in Western Australia
Date/Time
WST
Temp
°C
App
Temp
°C
Dew
Point
°C
Rel
Hum
%
Delta-T
°C
Wind Press
QNH
hPa
Press
MSL
hPa
Rain since
9am
mm
Dir  Spd
km/h
Gust
km/h
Spd
kts
Gust
kts
15/03:30pm 16.3 - - - - - - - - - 1025.1 1025.0 -
15/03:00pm 16.5 - - - - - - - - - 1024.8 1024.7 -
15/02:30pm 16.6 - - - - - - - - - 1024.7 1024.6 -
15/02:00pm 16.6 - - - - - - - - - 1024.6 1024.5 -
15/01:30pm 16.6 - - - - - - - - - 1024.4 1024.3 -
15/01:00pm 16.5 - - - - - - - - - 1024.6 1024.5 -
15/12:30pm 16.9 - - - - - - - - - 1024.6 1024.5 -
15/12:00pm 17.0 - - - - - - - - - 1024.7 1024.6 -
15/11:30am 16.7 - - - - - - - - - 1024.8 1024.7 -
15/11:00am 16.7 - - - - - - - - - 1024.8 1024.7 -
15/10:30am 16.3 - - - - - - - - - 1025.0 1024.9 -
15/10:00am 16.3 - - - - - - - - - 1025.1 1025.0 -
15/09:30am 15.8 - - - - - - - - - 1025.0 1024.9 -
15/09:00am 15.9 - - - - - - - - - 1025.1 1025.0 -
15/08:30am 15.9 - - - - - - - - - 1025.1 1025.0 -
15/08:00am 15.9 - - - - - - - - - 1024.9 1024.8 -
15/07:30am 15.7 - - - - - - - - - 1024.5 1024.4 -
15/07:00am 15.6 - - - - - - - - - 1024.2 1024.1 -
15/06:30am 15.9 - - - - - - - - - 1023.9 1023.8 -
15/06:00am 15.7 - - - - - - - - - 1023.7 1023.6 -
15/05:30am 15.6 - - - - - - - - - 1023.1 1023.0 -
15/05:00am 15.4 - - - - - - - - - 1022.9 1022.8 -
15/04:30am 15.6 - - - - - - - - - 1022.6 1022.5 -
15/04:00am 15.4 - - - - - - - - - 1022.4 1022.3 -
15/03:30am 15.3 - - - - - - - - - 1022.3 1022.2 -
15/03:00am 15.2 - - - - - - - - - 1022.3 1022.2 -
15/02:30am 15.2 - - - - - - - - - 1022.2 1022.1 -
15/02:00am 15.3 - - - - - - - - - 1022.2 1022.1 -
15/01:30am 15.4 - - - - - - - - - 1022.3 1022.2 -
15/01:00am 15.9 - - - - - - - - - 1022.1 1022.0 -
15/12:30am 17.0 - - - - - - - - - 1022.0 1021.9 -
15/12:00am 17.3 - - - - - - - - - 1021.6 1021.5 -
 
Date/Time
WST
Temp
°C
App
Temp
°C
Dew
Point
°C
Rel
Hum
%
Delta-T
°C
Wind Press
QNH
hPa
Press
MSL
hPa
Rain since
9am
mm
Dir  Spd
km/h
Gust
km/h
Spd
kts
Gust
kts
14/11:30pm 17.3 - - - - - - - - - 1021.4 1021.3 -
14/11:00pm 17.2 - - - - - - - - - 1021.2 1021.1 -
14/10:30pm 17.1 - - - - - - - - - 1021.0 1020.9 -
14/10:00pm 17.1 - - - - - - - - - 1021.4 1021.3 -
14/09:30pm 17.3 - - - - - - - - - 1021.7 1021.6 -
14/09:00pm 17.3 - - - - - - - - - 1022.7 1022.6 -
14/08:30pm 17.2 - - - - - - - - - 1022.9 1022.8 -
14/08:00pm 17.9 - - - - - - - - - 1023.1 1023.0 -
14/07:30pm 18.0 - - - - - - - - - 1022.6 1022.5 -
14/07:00pm 17.9 - - - - - - - - - 1022.2 1022.1 -
14/06:30pm 18.0 - - - - - - - - - 1021.4 1021.3 -
14/06:00pm 18.0 - - - - - - - - - 1021.5 1021.4 -
14/05:30pm 18.1 - - - - - - - - - 1020.5 1020.5 -
14/05:00pm 18.4 - - - - - - - - - 1020.9 1020.8 -
14/04:30pm 18.7 - - - - - - - - - 1020.6 1020.6 -
14/04:00pm 18.5 - - - - - - - - - 1020.9 1020.8 -
14/03:30pm 18.8 - - - - - - - - - 1020.1 1020.1 -
14/03:00pm 19.1 - - - - - - - - - 1020.3 1020.3 -
14/02:30pm 20.1 - - - - - - - - - 1020.6 1020.6 -
14/02:00pm 20.8 - - - - - - - - - 1020.3 1020.3 -
14/01:30pm 20.9 - - - - - - - - - 1020.6 1020.6 -
14/01:00pm 21.3 - - - - - - - - - 1020.6 1020.6 -
14/12:30pm 21.1 - - - - - - - - - 1020.3 1020.3 -
14/12:00pm 21.0 - - - - - - - - - 1021.0 1020.9 -
14/11:30am 21.1 - - - - - - - - - 1021.4 1021.3 -
14/11:00am 20.9 - - - - - - - - - 1021.4 1021.3 -
14/10:30am 21.0 - - - - - - - - - 1021.5 1021.4 -
14/10:00am 21.9 - - - - - - - - - 1021.3 1021.2 -
14/09:30am 21.8 - - - - - - - - - 1021.6 1021.5 -
14/09:00am 20.7 - - - - - - - - - 1021.2 1021.1 -
14/08:30am 19.8 - - - - - - - - - 1021.1 1021.0 -
14/08:00am 19.6 - - - - - - - - - 1021.2 1021.1 -
14/07:30am 17.7 - - - - - - - - - 1020.7 1020.7 -
14/07:00am 18.0 - - - - - - - - - 1020.7 1020.7 -
14/06:30am 16.9 - - - - - - - - - 1020.2 1020.2 -
14/06:00am 16.4 - - - - - - - - - 1020.3 1020.3 -
14/05:30am 16.6 - - - - - - - - - 1019.9 1019.9 -
14/05:00am 17.1 - - - - - - - - - 1019.9 1019.9 -
14/04:30am 17.0 - - - - - - - - - 1019.8 1019.8 -
14/04:00am 18.4 - - - - - - - - - 1020.0 1020.0 -
14/03:30am 18.2 - - - - - - - - - 1019.9 1019.9 -
14/03:00am 19.2 - - - - - - - - - 1019.8 1019.8 -
14/02:30am 19.2 - - - - - - - - - 1019.5 1019.5 -
14/02:00am 19.0 - - - - - - - - - 1019.7 1019.7 -
14/01:30am 19.2 - - - - - - - - - 1019.7 1019.7 -
14/01:00am 19.9 - - - - - - - - - 1019.7 1019.7 -
14/12:30am 20.0 - - - - - - - - - 1019.8 1019.8 -
14/12:00am 19.9 - - - - - - - - - 1019.8 1019.8 -
 
Date/Time
WST
Temp
°C
App
Temp
°C
Dew
Point
°C
Rel
Hum
%
Delta-T
°C
Wind Press
QNH
hPa
Press
MSL
hPa
Rain since
9am
mm
Dir  Spd
km/h
Gust
km/h
Spd
kts
Gust
kts
13/11:30pm 18.9 - - - - - - - - - 1019.7 1019.7 -
13/11:00pm 18.2 - - - - - - - - - 1019.8 1019.8 -
13/10:30pm 18.4 - - - - - - - - - 1019.7 1019.7 -
13/10:00pm 18.4 - - - - - - - - - 1019.8 1019.8 -
13/09:30pm 18.4 - - - - - - - - - 1019.9 1019.9 -
13/09:00pm 18.1 - - - - - - - - - 1019.9 1019.9 -
13/08:30pm 18.4 - - - - - - - - - 1019.9 1019.9 -
13/08:00pm 18.5 - - - - - - - - - 1019.8 1019.8 -
13/07:30pm 18.8 - - - - - - - - - 1019.6 1019.6 -
13/07:00pm 19.4 - - - - - - - - - 1019.4 1019.4 -
13/06:30pm 19.6 - - - - - - - - - 1019.1 1019.1 -
13/06:00pm 20.1 - - - - - - - - - 1019.0 1019.0 -
13/05:30pm 20.1 - - - - - - - - - 1018.9 1018.9 -
13/05:00pm 20.0 - - - - - - - - - 1018.6 1018.6 -
13/04:30pm 20.1 - - - - - - - - - 1018.4 1018.4 -
13/04:00pm 20.1 - - - - - - - - - 1018.4 1018.4 -
13/03:30pm 20.2 - - - - - - - - - 1018.2 1018.2 -
13/03:00pm 20.4 - - - - - - - - - 1018.4 1018.4 -
13/02:30pm 20.8 - - - - - - - - - 1018.6 1018.6 -
13/02:00pm 20.8 - - - - - - - - - 1018.8 1018.8 -
13/01:30pm 21.1 - - - - - - - - - 1019.2 1019.2 -
13/01:00pm 21.2 - - - - - - - - - 1019.7 1019.7 -
13/12:30pm 22.8 - - - - - - - - - 1020.1 1020.1 -
13/12:00pm 22.4 - - - - - - - - - 1020.6 1020.6 -
13/11:30am 21.6 - - - - - - - - - 1021.4 1021.3 -
13/11:00am 21.0 - - - - - - - - - 1022.0 1021.9 -
13/10:30am 20.5 - - - - - - - - - 1022.5 1022.4 -
13/10:00am 20.0 - - - - - - - - - 1023.0 1022.9 -
13/09:30am 19.0 - - - - - - - - - 1023.3 1023.2 -
13/09:00am 18.6 - - - - - - - - - 1023.5 1023.4 -
13/08:30am 17.9 - - - - - - - - - 1023.7 1023.6 -
13/08:00am 17.7 - - - - - - - - - 1023.8 1023.7 -
13/07:30am 17.4 - - - - - - - - - 1023.7 1023.6 -
13/07:00am 17.1 - - - - - - - - - 1023.7 1023.6 -
13/06:30am 17.1 - - - - - - - - - 1023.7 1023.6 -
13/06:00am 16.9 - - - - - - - - - 1023.6 1023.5 -
13/05:30am 17.1 - - - - - - - - - 1023.6 1023.5 -
13/05:00am 17.5 - - - - - - - - - 1023.5 1023.4 -
13/04:30am 17.6 - - - - - - - - - 1023.5 1023.4 -
13/04:00am 17.6 - - - - - - - - - 1023.5 1023.4 -
13/03:30am 17.6 - - - - - - - - - 1023.4 1023.3 -
13/03:00am 17.8 - - - - - - - - - 1023.3 1023.2 -
13/02:30am 17.6 - - - - - - - - - 1023.2 1023.1 -
13/02:00am 17.8 - - - - - - - - - 1023.0 1022.9 -
13/01:30am 18.2 - - - - - - - - - 1023.5 1023.4 -
13/01:00am 18.6 - - - - - - - - - 1023.7 1023.6 -
13/12:30am 18.6 - - - - - - - - - 1023.9 1023.8 -
13/12:00am 19.0 - - - - - - - - - 1023.9 1023.8 -
 
Date/Time
WST
Temp
°C
App
Temp
°C
Dew
Point
°C
Rel
Hum
%
Delta-T
°C
Wind Press
QNH
hPa
Press
MSL
hPa
Rain since
9am
mm
Dir  Spd
km/h
Gust
km/h
Spd
kts
Gust
kts
12/11:30pm 19.5 - - - - - - - - - 1023.7 1023.6 -
12/11:00pm 17.4 - - - - - - - - - 1023.2 1023.1 -
12/10:30pm 17.7 - - - - - - - - - 1023.2 1023.1 -
12/10:00pm 18.4 - - - - - - - - - 1023.0 1022.9 -
12/09:30pm 18.6 - - - - - - - - - 1022.9 1022.8 -
12/09:00pm 19.2 - - - - - - - - - 1022.7 1022.6 -
12/08:30pm 19.4 - - - - - - - - - 1022.3 1022.2 -
12/08:00pm 19.7 - - - - - - - - - 1022.1 1022.0 -
12/07:30pm 20.3 - - - - - - - - - 1021.8 1021.7 -
12/07:00pm 20.9 - - - - - - - - - 1021.6 1021.5 -
12/06:30pm 21.2 - - - - - - - - - 1021.0 1020.9 -
12/06:00pm 22.0 - - - - - - - - - 1020.5 1020.5 -
12/05:30pm 22.3 - - - - - - - - - 1020.2 1020.2 -
12/05:00pm 22.1 - - - - - - - - - 1019.6 1019.6 -
12/04:30pm 23.0 - - - - - - - - - 1019.2 1019.2 -
12/04:00pm 23.8 - - - - - - - - - 1019.1 1019.1 -

Other formats

Comma delimited format used in spreadsheet applications
http://www.bom.gov.au/fwo/IDW60801/IDW60801.95648.axf

JavaScript Object Notation format (JSON) in row-major order
http://www.bom.gov.au/fwo/IDW60801/IDW60801.95648.json

Data quality

Most of these data are generated automatically and are frequently updated. Quality checks on data are not normally performed. It is possible for incorrect values to appear. Refer to information at About Latest Weather Observations and please check the disclaimer before using these data.